sensor_id;sensor_type;location;lat;lon;timestamp;pressure;altitude;pressure_sealevel;temperature;humidity
17785;BME280;9016;53.582;10.062;2023-04-01T00:01:04;99448.47;;;13.31;90.88
17785;BME280;9016;53.582;10.062;2023-04-01T00:03:33;99444.22;;;13.28;91.50
17785;BME280;9016;53.582;10.062;2023-04-01T00:06:02;99440.03;;;13.26;91.74
17785;BME280;9016;53.582;10.062;2023-04-01T00:08:30;99439.31;;;13.24;91.65
17785;BME280;9016;53.582;10.062;2023-04-01T00:10:59;99443.13;;;13.31;92.40
17785;BME280;9016;53.582;10.062;2023-04-01T00:13:28;99445.38;;;13.35;92.31
17785;BME280;9016;53.582;10.062;2023-04-01T00:15:56;99440.84;;;13.26;91.84
17785;BME280;9016;53.582;10.062;2023-04-01T00:18:26;99440.28;;;13.23;91.49
17785;BME280;9016;53.582;10.062;2023-04-01T00:20:54;99444.09;;;13.20;91.85
17785;BME280;9016;53.582;10.062;2023-04-01T00:23:22;99440.00;;;13.16;92.65
17785;BME280;9016;53.582;10.062;2023-04-01T00:25:50;99440.72;;;13.18;92.70
17785;BME280;9016;53.582;10.062;2023-04-01T00:28:20;99442.00;;;13.24;92.39
17785;BME280;9016;53.582;10.062;2023-04-01T00:30:48;99446.94;;;13.19;92.77
17785;BME280;9016;53.582;10.062;2023-04-01T00:33:16;99450.41;;;13.19;92.63
17785;BME280;9016;53.582;10.062;2023-04-01T00:35:44;99449.31;;;13.22;92.59
17785;BME280;9016;53.582;10.062;2023-04-01T00:38:13;99449.84;;;13.16;92.60
17785;BME280;9016;53.582;10.062;2023-04-01T00:40:43;99449.59;;;13.09;92.69
17785;BME280;9016;53.582;10.062;2023-04-01T00:43:13;99445.66;;;13.04;92.73
17785;BME280;9016;53.582;10.062;2023-04-01T00:45:44;99439.56;;;13.02;93.59
17785;BME280;9016;53.582;10.062;2023-04-01T00:48:16;99449.13;;;13.04;93.24
17785;BME280;9016;53.582;10.062;2023-04-01T00:50:49;99446.69;;;12.91;93.35
17785;BME280;9016;53.582;10.062;2023-04-01T00:53:19;99445.88;;;12.91;93.98
17785;BME280;9016;53.582;10.062;2023-04-01T00:55:51;99447.28;;;12.95;93.96
17785;BME280;9016;53.582;10.062;2023-04-01T00:58:23;99446.56;;;12.93;93.67
17785;BME280;9016;53.582;10.062;2023-04-01T01:00:55;99445.88;;;12.91;94.21
17785;BME280;9016;53.582;10.062;2023-04-01T01:03:24;99458.09;;;12.93;94.25
17785;BME280;9016;53.582;10.062;2023-04-01T01:06:11;99447.38;;;12.84;93.27
17785;BME280;9016;53.582;10.062;2023-04-01T01:09:06;99444.72;;;12.74;94.35
17785;BME280;9016;53.582;10.062;2023-04-01T01:11:40;99453.16;;;12.79;94.78
17785;BME280;9016;53.582;10.062;2023-04-01T01:14:25;99455.16;;;12.87;95.00
17785;BME280;9016;53.582;10.062;2023-04-01T01:17:02;99454.59;;;12.83;94.66
17785;BME280;9016;53.582;10.062;2023-04-01T01:19:52;99444.97;;;12.71;94.89
17785;BME280;9016;53.582;10.062;2023-04-01T01:22:49;99447.50;;;12.73;94.78
17785;BME280;9016;53.582;10.062;2023-04-01T01:25:31;99449.94;;;12.76;95.86
17785;BME280;9016;53.582;10.062;2023-04-01T01:28:14;99456.09;;;12.76;95.89
17785;BME280;9016;53.582;10.062;2023-04-01T01:30:56;99447.25;;;12.76;94.87
17785;BME280;9016;53.582;10.062;2023-04-01T01:33:56;99451.31;;;12.70;95.45
17785;BME280;9016;53.582;10.062;2023-04-01T01:36:32;99452.84;;;12.73;95.30
17785;BME280;9016;53.582;10.062;2023-04-01T01:39:03;99449.34;;;12.72;95.53
17785;BME280;9016;53.582;10.062;2023-04-01T01:41:33;99452.59;;;12.76;94.99
17785;BME280;9016;53.582;10.062;2023-04-01T01:44:04;99454.25;;;12.67;95.45
17785;BME280;9016;53.582;10.062;2023-04-01T01:46:35;99460.16;;;12.61;96.10
17785;BME280;9016;53.582;10.062;2023-04-01T01:49:04;99462.66;;;12.53;95.76
17785;BME280;9016;53.582;10.062;2023-04-01T01:51:35;99459.16;;;12.62;96.16
17785;BME280;9016;53.582;10.062;2023-04-01T01:54:04;99455.66;;;12.71;96.16
17785;BME280;9016;53.582;10.062;2023-04-01T01:56:34;99463.84;;;12.79;96.36
17785;BME280;9016;53.582;10.062;2023-04-01T01:59:06;99458.66;;;12.87;95.66
17785;BME280;9016;53.582;10.062;2023-04-01T02:01:39;99460.78;;;12.93;94.37
17785;BME280;9016;53.582;10.062;2023-04-01T02:04:09;99463.31;;;12.95;94.69
17785;BME280;9016;53.582;10.062;2023-04-01T02:06:44;99466.28;;;12.92;93.80
17785;BME280;9016;53.582;10.062;2023-04-01T02:09:18;99463.31;;;12.95;94.76
17785;BME280;9016;53.582;10.062;2023-04-01T02:11:49;99462.47;;;12.85;94.29
17785;BME280;9016;53.582;10.062;2023-04-01T02:14:21;99462.16;;;12.78;94.03
17785;BME280;9016;53.582;10.062;2023-04-01T02:16:53;99469.34;;;12.78;95.50
17785;BME280;9016;53.582;10.062;2023-04-01T02:19:26;99465.81;;;12.77;95.30
17785;BME280;9016;53.582;10.062;2023-04-01T02:21:59;99465.97;;;12.76;94.53
17785;BME280;9016;53.582;10.062;2023-04-01T02:24:30;99466.09;;;12.84;95.35
17785;BME280;9016;53.582;10.062;2023-04-01T02:27:01;99471.28;;;12.66;94.57
17785;BME280;9016;53.582;10.062;2023-04-01T02:29:32;99470.88;;;12.80;94.53
17785;BME280;9016;53.582;10.062;2023-04-01T02:32:04;99464.94;;;12.67;95.71
17785;BME280;9016;53.582;10.062;2023-04-01T02:34:33;99463.41;;;12.65;95.62
17785;BME280;9016;53.582;10.062;2023-04-01T02:37:04;99469.84;;;12.62;95.92
17785;BME280;9016;53.582;10.062;2023-04-01T02:39:33;99471.56;;;12.63;95.16
17785;BME280;9016;53.582;10.062;2023-04-01T02:42:02;99478.97;;;12.60;96.67
17785;BME280;9016;53.582;10.062;2023-04-01T02:44:30;99486.47;;;12.66;96.24
17785;BME280;9016;53.582;10.062;2023-04-01T02:46:59;99484.06;;;12.63;96.80
17785;BME280;9016;53.582;10.062;2023-04-01T02:49:27;99484.16;;;12.52;96.96
17785;BME280;9016;53.582;10.062;2023-04-01T02:51:55;99480.06;;;12.48;97.28
17785;BME280;9016;53.582;10.062;2023-04-01T02:54:28;99482.47;;;12.51;98.35
17785;BME280;9016;53.582;10.062;2023-04-01T02:56:57;99492.44;;;12.49;97.53
17785;BME280;9016;53.582;10.062;2023-04-01T02:59:25;99490.75;;;12.48;97.73
17785;BME280;9016;53.582;10.062;2023-04-01T03:01:53;99493.72;;;12.45;97.74
17785;BME280;9016;53.582;10.062;2023-04-01T03:04:21;99495.38;;;12.46;97.89
17785;BME280;9016;53.582;10.062;2023-04-01T03:06:49;99496.00;;;12.59;97.92
17785;BME280;9016;53.582;10.062;2023-04-01T03:09:18;99493.75;;;12.64;97.09
17785;BME280;9016;53.582;10.062;2023-04-01T03:11:47;99491.09;;;12.64;96.92
17785;BME280;9016;53.582;10.062;2023-04-01T03:14:15;99507.97;;;12.64;96.69
17785;BME280;9016;53.582;10.062;2023-04-01T03:16:44;99509.78;;;12.64;96.53
17785;BME280;9016;53.582;10.062;2023-04-01T03:19:12;99506.50;;;12.51;96.65
17785;BME280;9016;53.582;10.062;2023-04-01T03:21:40;99501.16;;;12.51;97.49
17785;BME280;9016;53.582;10.062;2023-04-01T03:24:08;99501.22;;;12.60;96.60
17785;BME280;9016;53.582;10.062;2023-04-01T03:26:37;99505.84;;;12.58;96.72
17785;BME280;9016;53.582;10.062;2023-04-01T03:29:06;99505.13;;;12.56;96.68
17785;BME280;9016;53.582;10.062;2023-04-01T03:31:34;99509.66;;;12.65;96.89
17785;BME280;9016;53.582;10.062;2023-04-01T03:34:02;99505.22;;;12.45;96.98
17785;BME280;9016;53.582;10.062;2023-04-01T03:36:31;99512.13;;;12.48;97.59
17785;BME280;9016;53.582;10.062;2023-04-01T03:38:58;99507.78;;;12.56;97.54
17785;BME280;9016;53.582;10.062;2023-04-01T03:41:27;99506.13;;;12.55;97.04
17785;BME280;9016;53.582;10.062;2023-04-01T03:43:55;99510.66;;;12.64;96.97
17785;BME280;9016;53.582;10.062;2023-04-01T03:46:24;99516.44;;;12.69;96.29
17785;BME280;9016;53.582;10.062;2023-04-01T03:48:53;99518.00;;;12.72;96.57
17785;BME280;9016;53.582;10.062;2023-04-01T03:51:21;99516.72;;;12.66;95.98
17785;BME280;9016;53.582;10.062;2023-04-01T03:53:49;99514.84;;;12.57;95.91
17785;BME280;9016;53.582;10.062;2023-04-01T03:56:17;99527.06;;;12.60;97.56
17785;BME280;9016;53.582;10.062;2023-04-01T03:58:45;99520.44;;;12.54;97.63
17785;BME280;9016;53.582;10.062;2023-04-01T04:01:15;99524.28;;;12.61;96.84
17785;BME280;9016;53.582;10.062;2023-04-01T04:03:45;99525.69;;;12.56;96.77
17785;BME280;9016;53.582;10.062;2023-04-01T04:06:14;99527.25;;;12.68;97.01
17785;BME280;9016;53.582;10.062;2023-04-01T04:08:42;99527.78;;;12.52;95.79
17785;BME280;9016;53.582;10.062;2023-04-01T04:11:12;99531.03;;;12.56;96.57
17785;BME280;9016;53.582;10.062;2023-04-01T04:13:41;99534.50;;;12.56;97.74
17785;BME280;9016;53.582;10.062;2023-04-01T04:16:10;99531.69;;;12.48;96.53
17785;BME280;9016;53.582;10.062;2023-04-01T04:18:38;99533.22;;;12.51;97.15
17785;BME280;9016;53.582;10.062;2023-04-01T04:21:11;99534.25;;;12.59;96.82
17785;BME280;9016;53.582;10.062;2023-04-01T04:23:40;99535.66;;;12.54;96.78
17785;BME280;9016;53.582;10.062;2023-04-01T04:26:11;99539.84;;;12.56;97.10
17785;BME280;9016;53.582;10.062;2023-04-01T04:28:40;99547.31;;;12.53;97.25
17785;BME280;9016;53.582;10.062;2023-04-01T04:31:08;99539.91;;;12.66;96.55
17785;BME280;9016;53.582;10.062;2023-04-01T04:33:38;99550.44;;;12.58;95.96
17785;BME280;9016;53.582;10.062;2023-04-01T04:36:09;99543.25;;;12.58;97.39
17785;BME280;9016;53.582;10.062;2023-04-01T04:38:37;99550.09;;;12.51;96.34
17785;BME280;9016;53.582;10.062;2023-04-01T04:41:08;99553.50;;;12.53;96.86
17785;BME280;9016;53.582;10.062;2023-04-01T04:43:36;99556.47;;;12.60;96.70
17785;BME280;9016;53.582;10.062;2023-04-01T04:46:06;99562.88;;;12.48;97.05
17785;BME280;9016;53.582;10.062;2023-04-01T04:48:34;99560.78;;;12.51;97.42
17785;BME280;9016;53.582;10.062;2023-04-01T04:51:03;99561.78;;;12.50;96.82
17785;BME280;9016;53.582;10.062;2023-04-01T04:53:33;99575.59;;;12.55;97.54
17785;BME280;9016;53.582;10.062;2023-04-01T04:56:03;99571.47;;;12.51;97.22
17785;BME280;9016;53.582;10.062;2023-04-01T04:58:31;99575.00;;;12.52;97.47
17785;BME280;9016;53.582;10.062;2023-04-01T05:01:05;99567.38;;;12.47;97.88
17785;BME280;9016;53.582;10.062;2023-04-01T05:03:34;99573.44;;;12.49;98.36
17785;BME280;9016;53.582;10.062;2023-04-01T05:06:02;99582.44;;;12.48;98.11
17785;BME280;9016;53.582;10.062;2023-04-01T05:08:30;99576.13;;;12.49;98.59
17785;BME280;9016;53.582;10.062;2023-04-01T05:11:01;99567.84;;;12.52;98.11
17785;BME280;9016;53.582;10.062;2023-04-01T05:13:29;99582.50;;;12.58;96.94
17785;BME280;9016;53.582;10.062;2023-04-01T05:15:59;99580.22;;;12.53;97.73
17785;BME280;9016;53.582;10.062;2023-04-01T05:18:27;99587.72;;;12.59;98.45
17785;BME280;9016;53.582;10.062;2023-04-01T05:20:55;99599.50;;;12.57;94.94
17785;BME280;9016;53.582;10.062;2023-04-01T05:23:23;99598.56;;;12.17;92.72
17785;BME280;9016;53.582;10.062;2023-04-01T05:25:52;99608.69;;;11.81;91.65
17785;BME280;9016;53.582;10.062;2023-04-01T05:28:21;99614.19;;;11.69;92.71
17785;BME280;9016;53.582;10.062;2023-04-01T05:30:49;99614.06;;;11.59;92.60
17785;BME280;9016;53.582;10.062;2023-04-01T05:33:17;99609.94;;;11.55;93.07
17785;BME280;9016;53.582;10.062;2023-04-01T05:35:45;99623.19;;;11.46;93.06
17785;BME280;9016;53.582;10.062;2023-04-01T05:38:15;99628.94;;;11.30;92.69
17785;BME280;9016;53.582;10.062;2023-04-01T05:40:46;99628.66;;;11.33;93.26
17785;BME280;9016;53.582;10.062;2023-04-01T05:43:14;99643.47;;;11.26;93.40
17785;BME280;9016;53.582;10.062;2023-04-01T05:45:46;99638.28;;;11.14;93.85
17785;BME280;9016;53.582;10.062;2023-04-01T05:48:17;99641.91;;;11.02;93.33
17785;BME280;9016;53.582;10.062;2023-04-01T05:50:45;99654.88;;;10.95;92.79
17785;BME280;9016;53.582;10.062;2023-04-01T05:53:15;99659.63;;;10.91;92.36
17785;BME280;9016;53.582;10.062;2023-04-01T05:55:43;99660.22;;;10.95;92.08
17785;BME280;9016;53.582;10.062;2023-04-01T05:58:12;99666.16;;;10.87;92.69
17785;BME280;9016;53.582;10.062;2023-04-01T06:00:46;99667.09;;;10.75;92.14
17785;BME280;9016;53.582;10.062;2023-04-01T06:03:28;99668.81;;;10.76;92.18
17785;BME280;9016;53.582;10.062;2023-04-01T06:05:57;99674.44;;;10.50;91.89
17785;BME280;9016;53.582;10.062;2023-04-01T06:08:26;99671.31;;;10.56;92.93
17785;BME280;9016;53.582;10.062;2023-04-01T06:11:12;99680.16;;;10.56;91.73
17785;BME280;9016;53.582;10.062;2023-04-01T06:13:58;99685.19;;;10.37;92.39
17785;BME280;9016;53.582;10.062;2023-04-01T06:16:43;99687.09;;;10.35;93.66
17785;BME280;9016;53.582;10.062;2023-04-01T06:19:24;99691.72;;;10.44;92.92
17785;BME280;9016;53.582;10.062;2023-04-01T06:22:22;99696.06;;;10.34;92.60
17785;BME280;9016;53.582;10.062;2023-04-01T06:25:09;99693.25;;;10.25;92.97
17785;BME280;9016;53.582;10.062;2023-04-01T06:27:55;99698.50;;;10.37;92.79
17785;BME280;9016;53.582;10.062;2023-04-01T06:30:38;99704.19;;;10.33;92.26
17785;BME280;9016;53.582;10.062;2023-04-01T06:33:20;99711.44;;;10.31;91.87
17785;BME280;9016;53.582;10.062;2023-04-01T06:36:08;99720.66;;;10.38;92.62
17785;BME280;9016;53.582;10.062;2023-04-01T06:39:02;99715.44;;;10.36;91.19
17785;BME280;9016;53.582;10.062;2023-04-01T06:41:57;99730.91;;;10.31;91.96
17785;BME280;9016;53.582;10.062;2023-04-01T06:44:36;99726.28;;;10.22;90.74
17785;BME280;9016;53.582;10.062;2023-04-01T06:47:20;99734.41;;;10.08;90.63
17785;BME280;9016;53.582;10.062;2023-04-01T06:49:57;99737.72;;;10.12;91.48
17785;BME280;9016;53.582;10.062;2023-04-01T06:52:37;99740.69;;;10.07;90.91
17785;BME280;9016;53.582;10.062;2023-04-01T06:55:21;99742.19;;;10.11;90.60
17785;BME280;9016;53.582;10.062;2023-04-01T06:57:56;99744.75;;;10.00;89.92
17785;BME280;9016;53.582;10.062;2023-04-01T07:00:29;99752.75;;;10.00;90.91
17785;BME280;9016;53.582;10.062;2023-04-01T07:03:05;99754.09;;;10.06;89.79
17785;BME280;9016;53.582;10.062;2023-04-01T07:05:36;99755.16;;;10.16;89.18
17785;BME280;9016;53.582;10.062;2023-04-01T07:08:08;99768.72;;;10.00;89.00
17785;BME280;9016;53.582;10.062;2023-04-01T07:10:45;99770.25;;;9.91;89.06
17785;BME280;9016;53.582;10.062;2023-04-01T07:13:18;99775.50;;;10.04;89.09
17785;BME280;9016;53.582;10.062;2023-04-01T07:15:58;99784.34;;;10.05;89.23
17785;BME280;9016;53.582;10.062;2023-04-01T07:18:34;99785.03;;;9.95;87.73
17785;BME280;9016;53.582;10.062;2023-04-01T07:21:12;99784.97;;;9.84;87.66
17785;BME280;9016;53.582;10.062;2023-04-01T07:23:46;99792.88;;;9.73;87.91
17785;BME280;9016;53.582;10.062;2023-04-01T07:26:18;99797.00;;;9.77;89.41
17785;BME280;9016;53.582;10.062;2023-04-01T07:28:48;99792.94;;;9.84;87.45
17785;BME280;9016;53.582;10.062;2023-04-01T07:31:29;99807.72;;;9.76;86.81
17785;BME280;9016;53.582;10.062;2023-04-01T07:34:05;99799.38;;;9.57;88.47
17785;BME280;9016;53.582;10.062;2023-04-01T07:36:42;99813.09;;;9.63;87.48
17785;BME280;9016;53.582;10.062;2023-04-01T07:39:22;99829.28;;;9.48;87.64
17785;BME280;9016;53.582;10.062;2023-04-01T07:42:00;99826.00;;;9.44;87.70
17785;BME280;9016;53.582;10.062;2023-04-01T07:44:34;99829.72;;;9.42;88.40
17785;BME280;9016;53.582;10.062;2023-04-01T07:47:16;99828.97;;;9.40;88.84
17785;BME280;9016;53.582;10.062;2023-04-01T07:50:00;99834.59;;;9.48;88.52
17785;BME280;9016;53.582;10.062;2023-04-01T07:52:35;99839.28;;;9.44;88.40
17785;BME280;9016;53.582;10.062;2023-04-01T07:55:09;99842.78;;;9.70;89.38
17785;BME280;9016;53.582;10.062;2023-04-01T07:57:47;99850.84;;;9.68;87.18
17785;BME280;9016;53.582;10.062;2023-04-01T08:00:20;99841.06;;;9.56;88.06
17785;BME280;9016;53.582;10.062;2023-04-01T08:03:11;99854.06;;;9.61;87.35
17785;BME280;9016;53.582;10.062;2023-04-01T08:05:53;99859.78;;;9.67;87.00
17785;BME280;9016;53.582;10.062;2023-04-01T08:08:32;99859.69;;;9.69;87.89
17785;BME280;9016;53.582;10.062;2023-04-01T08:11:14;99875.66;;;9.56;86.97
17785;BME280;9016;53.582;10.062;2023-04-01T08:13:55;99875.53;;;9.33;87.27
17785;BME280;9016;53.582;10.062;2023-04-01T08:16:33;99880.88;;;9.33;88.66
17785;BME280;9016;53.582;10.062;2023-04-01T08:19:09;99889.13;;;9.41;87.98
17785;BME280;9016;53.582;10.062;2023-04-01T08:21:47;99881.72;;;9.33;87.58
17785;BME280;9016;53.582;10.062;2023-04-01T08:24:25;99893.84;;;9.50;86.89
17785;BME280;9016;53.582;10.062;2023-04-01T08:27:16;99893.06;;;9.35;86.13
17785;BME280;9016;53.582;10.062;2023-04-01T08:29:48;99895.22;;;9.43;85.96
17785;BME280;9016;53.582;10.062;2023-04-01T08:32:23;99910.97;;;9.46;86.11
17785;BME280;9016;53.582;10.062;2023-04-01T08:35:00;99908.09;;;9.49;85.50
17785;BME280;9016;53.582;10.062;2023-04-01T08:37:36;99911.72;;;9.48;85.02
17785;BME280;9016;53.582;10.062;2023-04-01T08:40:30;99912.34;;;9.51;84.73
17785;BME280;9016;53.582;10.062;2023-04-01T08:43:08;99916.69;;;9.52;84.83
17785;BME280;9016;53.582;10.062;2023-04-01T08:45:52;99920.50;;;9.36;86.00
17785;BME280;9016;53.582;10.062;2023-04-01T08:48:45;99929.59;;;9.58;86.67
17785;BME280;9016;53.582;10.062;2023-04-01T08:51:47;99945.44;;;9.60;85.85
17785;BME280;9016;53.582;10.062;2023-04-01T08:54:31;99935.88;;;9.70;85.75
17785;BME280;9016;53.582;10.062;2023-04-01T08:57:09;99929.03;;;9.78;85.50
17785;BME280;9016;53.582;10.062;2023-04-01T09:00:07;99937.78;;;9.55;84.55
17785;BME280;9016;53.582;10.062;2023-04-01T09:03:03;99943.75;;;9.59;85.14
17785;BME280;9016;53.582;10.062;2023-04-01T09:08:34;99956.06;;;9.60;85.37
17785;BME280;9016;53.582;10.062;2023-04-01T09:11:16;99951.72;;;9.59;85.27
17785;BME280;9016;53.582;10.062;2023-04-01T09:14:17;99952.88;;;9.80;85.27
17785;BME280;9016;53.582;10.062;2023-04-01T09:20:26;99963.41;;;9.44;84.23
17785;BME280;9016;53.582;10.062;2023-04-01T09:23:12;99972.03;;;9.60;84.39
17785;BME280;9016;53.582;10.062;2023-04-01T09:25:55;99968.59;;;9.45;83.73
17785;BME280;9016;53.582;10.062;2023-04-01T09:28:33;99977.13;;;9.50;83.35
17785;BME280;9016;53.582;10.062;2023-04-01T09:31:16;99993.25;;;9.35;84.76
17785;BME280;9016;53.582;10.062;2023-04-01T09:34:15;99993.03;;;9.38;84.28
17785;BME280;9016;53.582;10.062;2023-04-01T09:36:52;99997.06;;;9.31;84.37
17785;BME280;9016;53.582;10.062;2023-04-01T09:39:34;100003.72;;;9.50;85.30
17785;BME280;9016;53.582;10.062;2023-04-01T09:42:15;100006.56;;;9.35;83.70
17785;BME280;9016;53.582;10.062;2023-04-01T09:44:57;100005.63;;;9.48;83.75
17785;BME280;9016;53.582;10.062;2023-04-01T09:47:40;100005.09;;;9.68;84.73
17785;BME280;9016;53.582;10.062;2023-04-01T09:50:27;100008.00;;;9.78;84.89
17785;BME280;9016;53.582;10.062;2023-04-01T09:53:07;100020.38;;;10.04;83.12
17785;BME280;9016;53.582;10.062;2023-04-01T09:56:03;100023.56;;;9.96;82.15
17785;BME280;9016;53.582;10.062;2023-04-01T09:58:54;100022.41;;;10.13;82.58
17785;BME280;9016;53.582;10.062;2023-04-01T10:01:44;100019.44;;;10.18;81.82
17785;BME280;9016;53.582;10.062;2023-04-01T10:04:53;100024.13;;;10.27;81.58
17785;BME280;9016;53.582;10.062;2023-04-01T10:08:00;100032.88;;;10.16;82.41
17785;BME280;9016;53.582;10.062;2023-04-01T10:10:47;100046.75;;;9.94;82.41
17785;BME280;9016;53.582;10.062;2023-04-01T10:13:41;100042.63;;;10.03;82.50
17785;BME280;9016;53.582;10.062;2023-04-01T10:16:24;100044.69;;;10.25;82.75
17785;BME280;9016;53.582;10.062;2023-04-01T10:19:07;100045.94;;;10.07;81.14
17785;BME280;9016;53.582;10.062;2023-04-01T10:22:02;100047.34;;;10.12;81.91
17785;BME280;9016;53.582;10.062;2023-04-01T10:24:53;100041.38;;;10.34;81.83
17785;BME280;9016;53.582;10.062;2023-04-01T10:27:49;100058.84;;;10.25;80.01
17785;BME280;9016;53.582;10.062;2023-04-01T10:30:36;100045.94;;;10.32;80.16
17785;BME280;9016;53.582;10.062;2023-04-01T10:33:44;100057.97;;;10.37;79.36
17785;BME280;9016;53.582;10.062;2023-04-01T10:36:46;100068.00;;;10.34;79.55
17785;BME280;9016;53.582;10.062;2023-04-01T10:39:34;100061.19;;;10.17;79.80
17785;BME280;9016;53.582;10.062;2023-04-01T10:42:24;100075.22;;;10.07;81.40
17785;BME280;9016;53.582;10.062;2023-04-01T10:45:26;100086.44;;;9.85;80.26
17785;BME280;9016;53.582;10.062;2023-04-01T10:48:15;100066.00;;;9.85;81.92
17785;BME280;9016;53.582;10.062;2023-04-01T10:51:18;100093.34;;;10.14;80.25
17785;BME280;9016;53.582;10.062;2023-04-01T10:56:51;100088.41;;;10.08;80.38
17785;BME280;9016;53.582;10.062;2023-04-01T11:02:53;100094.66;;;10.07;81.34
17785;BME280;9016;53.582;10.062;2023-04-01T11:11:41;100111.06;;;9.88;81.40
17785;BME280;9016;53.582;10.062;2023-04-01T11:18:14;100124.56;;;9.85;81.30
17785;BME280;9016;53.582;10.062;2023-04-01T11:24:11;100129.19;;;9.69;82.35
17785;BME280;9016;53.582;10.062;2023-04-01T11:26:52;100129.13;;;9.83;81.95
17785;BME280;9016;53.582;10.062;2023-04-01T11:29:48;100138.31;;;9.92;82.92
17785;BME280;9016;53.582;10.062;2023-04-01T11:32:38;100138.38;;;10.17;81.09
17785;BME280;9016;53.582;10.062;2023-04-01T11:38:44;100156.38;;;9.87;80.77
17785;BME280;9016;53.582;10.062;2023-04-01T11:41:25;100149.75;;;9.80;81.39
17785;BME280;9016;53.582;10.062;2023-04-01T11:44:09;100158.88;;;9.76;81.32
17785;BME280;9016;53.582;10.062;2023-04-01T11:46:46;100171.25;;;9.50;81.80
17785;BME280;9016;53.582;10.062;2023-04-01T11:49:29;100174.88;;;9.49;82.25
17785;BME280;9016;53.582;10.062;2023-04-01T11:52:11;100168.28;;;9.55;80.81
17785;BME280;9016;53.582;10.062;2023-04-01T11:54:58;100175.88;;;9.20;81.05
17785;BME280;9016;53.582;10.062;2023-04-01T11:57:52;100189.34;;;9.31;81.74
17785;BME280;9016;53.582;10.062;2023-04-01T12:00:44;100189.91;;;9.36;81.77
17785;BME280;9016;53.582;10.062;2023-04-01T12:03:40;100187.41;;;9.47;82.01
17785;BME280;9016;53.582;10.062;2023-04-01T12:06:16;100194.84;;;9.42;82.29
17785;BME280;9016;53.582;10.062;2023-04-01T12:08:54;100197.00;;;9.50;82.17
17785;BME280;9016;53.582;10.062;2023-04-01T12:11:38;100206.94;;;9.46;81.18
17785;BME280;9016;53.582;10.062;2023-04-01T12:14:15;100216.34;;;9.52;81.45
17785;BME280;9016;53.582;10.062;2023-04-01T12:16:52;100213.28;;;9.17;80.63
17785;BME280;9016;53.582;10.062;2023-04-01T12:19:29;100234.72;;;9.28;81.14
17785;BME280;9016;53.582;10.062;2023-04-01T12:22:19;100224.31;;;9.11;81.06
17785;BME280;9016;53.582;10.062;2023-04-01T12:24:58;100231.13;;;9.01;81.07
17785;BME280;9016;53.582;10.062;2023-04-01T12:27:45;100237.00;;;8.92;81.11
17785;BME280;9016;53.582;10.062;2023-04-01T12:30:33;100245.09;;;8.90;81.70
17785;BME280;9016;53.582;10.062;2023-04-01T12:36:19;100247.28;;;8.98;80.80
17785;BME280;9016;53.582;10.062;2023-04-01T12:39:11;100248.78;;;9.16;81.25
17785;BME280;9016;53.582;10.062;2023-04-01T12:41:50;100255.53;;;9.22;80.47
17785;BME280;9016;53.582;10.062;2023-04-01T12:44:37;100264.25;;;9.10;81.07
17785;BME280;9016;53.582;10.062;2023-04-01T12:47:29;100266.84;;;9.11;80.81
17785;BME280;9016;53.582;10.062;2023-04-01T12:50:19;100269.47;;;8.97;80.73
17785;BME280;9016;53.582;10.062;2023-04-01T12:53:01;100274.50;;;9.02;81.19
17785;BME280;9016;53.582;10.062;2023-04-01T12:55:40;100288.63;;;8.88;81.44
17785;BME280;9016;53.582;10.062;2023-04-01T12:58:39;100287.69;;;9.03;80.96
17785;BME280;9016;53.582;10.062;2023-04-01T13:01:23;100291.38;;;8.86;79.72
17785;BME280;9016;53.582;10.062;2023-04-01T13:04:22;100298.38;;;8.87;80.79
17785;BME280;9016;53.582;10.062;2023-04-01T13:07:03;100309.44;;;8.66;79.64
17785;BME280;9016;53.582;10.062;2023-04-01T13:09:45;100307.56;;;8.68;80.78
17785;BME280;9016;53.582;10.062;2023-04-01T13:12:33;100280.09;;;8.53;80.97
17785;BME280;9016;53.582;10.062;2023-04-01T13:15:22;100314.56;;;8.69;81.51
17785;BME280;9016;53.582;10.062;2023-04-01T13:18:01;100313.53;;;8.71;79.59
17785;BME280;9016;53.582;10.062;2023-04-01T13:20:40;100321.16;;;8.48;79.35
17785;BME280;9016;53.582;10.062;2023-04-01T13:23:23;100329.81;;;8.65;80.59
17785;BME280;9016;53.582;10.062;2023-04-01T13:26:02;100328.03;;;8.66;79.08
17785;BME280;9016;53.582;10.062;2023-04-01T13:28:43;100338.47;;;8.69;79.05
17785;BME280;9016;53.582;10.062;2023-04-01T13:31:25;100344.31;;;8.60;79.89
17785;BME280;9016;53.582;10.062;2023-04-01T13:34:04;100344.31;;;8.60;78.82
17785;BME280;9016;53.582;10.062;2023-04-01T13:36:39;100347.41;;;8.52;79.40
17785;BME280;9016;53.582;10.062;2023-04-01T13:39:27;100348.06;;;8.71;79.37
17785;BME280;9016;53.582;10.062;2023-04-01T13:42:12;100357.06;;;8.69;78.71
17785;BME280;9016;53.582;10.062;2023-04-01T13:44:46;100344.41;;;8.58;76.68
17785;BME280;9016;53.582;10.062;2023-04-01T13:47:55;100360.69;;;8.52;77.70
17785;BME280;9016;53.582;10.062;2023-04-01T13:50:40;100373.09;;;8.67;78.35
17785;BME280;9016;53.582;10.062;2023-04-01T13:53:36;100381.13;;;8.81;77.88
17785;BME280;9016;53.582;10.062;2023-04-01T13:56:15;100384.81;;;8.79;77.58
17785;BME280;9016;53.582;10.062;2023-04-01T13:58:56;100384.00;;;8.63;77.32
17785;BME280;9016;53.582;10.062;2023-04-01T14:01:32;100390.50;;;8.57;77.43
17785;BME280;9016;53.582;10.062;2023-04-01T14:04:23;100394.88;;;8.58;77.08
17785;BME280;9016;53.582;10.062;2023-04-01T14:07:05;100398.28;;;8.60;76.88
17785;BME280;9016;53.582;10.062;2023-04-01T14:09:54;100403.38;;;8.49;76.34
17785;BME280;9016;53.582;10.062;2023-04-01T14:12:30;100400.63;;;8.51;77.31
17785;BME280;9016;53.582;10.062;2023-04-01T14:15:18;100407.75;;;8.35;77.92
17785;BME280;9016;53.582;10.062;2023-04-01T14:18:01;100406.34;;;8.59;76.97
17785;BME280;9016;53.582;10.062;2023-04-01T14:20:39;100411.47;;;8.62;77.37
17785;BME280;9016;53.582;10.062;2023-04-01T14:23:23;100416.22;;;8.57;76.46
17785;BME280;9016;53.582;10.062;2023-04-01T14:26:07;100427.25;;;8.49;77.12
17785;BME280;9016;53.582;10.062;2023-04-01T14:28:42;100429.47;;;8.41;77.20
17785;BME280;9016;53.582;10.062;2023-04-01T14:34:28;100439.94;;;8.44;76.97